createdAt,value
2018-09-19T00:00:25.092Z,0
2018-09-19T00:01:25.774Z,0
2018-09-19T00:02:26.451Z,0
2018-09-19T00:03:27.126Z,0
2018-09-19T00:04:27.802Z,0
2018-09-19T00:05:28.480Z,0
2018-09-19T00:06:29.153Z,0
2018-09-19T00:07:29.830Z,0
2018-09-19T00:08:30.506Z,0
2018-09-19T00:09:31.182Z,0
2018-09-19T00:10:31.866Z,0
2018-09-19T00:11:32.579Z,0
2018-09-19T00:12:33.256Z,0
2018-09-19T00:13:33.930Z,0
2018-09-19T00:14:34.606Z,0
2018-09-19T00:15:35.282Z,0
2018-09-19T00:16:35.962Z,0
2018-09-19T00:17:36.678Z,0
2018-09-19T00:18:37.354Z,0
2018-09-19T00:19:38.035Z,0
2018-09-19T00:20:38.707Z,0
2018-09-19T00:21:39.382Z,0
2018-09-19T00:22:40.088Z,0
2018-09-19T00:23:40.755Z,0
2018-09-19T00:24:41.455Z,0
2018-09-19T00:25:42.212Z,0
2018-09-19T00:26:42.850Z,0
2018-09-19T00:27:43.526Z,0
2018-09-19T00:28:44.203Z,0
2018-09-19T00:29:44.879Z,0
2018-09-19T00:30:45.555Z,0
2018-09-19T00:31:46.236Z,0
2018-09-19T00:32:46.904Z,0
2018-09-19T00:33:47.581Z,0
2018-09-19T00:34:48.255Z,0
2018-09-19T00:35:48.931Z,0
2018-09-19T00:36:49.605Z,0
2018-09-19T00:37:50.281Z,0
2018-09-19T00:38:51.002Z,0
2018-09-19T00:39:51.640Z,0
2018-09-19T00:40:52.381Z,0
2018-09-19T00:41:53.026Z,0
2018-09-19T00:42:53.702Z,0
2018-09-19T00:43:54.386Z,0
2018-09-19T00:44:55.104Z,0
2018-09-19T00:45:55.776Z,0
2018-09-19T00:46:56.451Z,0
2018-09-19T00:47:57.125Z,0
2018-09-19T00:48:57.802Z,0
2018-09-19T00:49:58.477Z,0
2018-09-19T00:50:59.154Z,0
2018-09-19T00:51:59.828Z,0
2018-09-19T00:53:00.504Z,0
2018-09-19T00:54:01.180Z,0
2018-09-19T00:55:01.905Z,0
2018-09-19T00:56:02.621Z,0
2018-09-19T00:57:03.298Z,0
2018-09-19T00:58:03.972Z,0
2018-09-19T00:59:04.649Z,0
2018-09-19T01:00:05.326Z,0
2018-09-19T01:01:06.046Z,0
2018-09-19T01:02:06.732Z,0
2018-09-19T01:03:07.403Z,0
2018-09-19T01:04:08.076Z,0
2018-09-19T01:05:08.794Z,0
2018-09-19T01:06:09.470Z,0
2018-09-19T01:07:10.142Z,0
2018-09-19T01:08:10.819Z,0
2018-09-19T01:09:11.495Z,0
2018-09-19T01:10:12.172Z,0
2018-09-19T01:11:12.849Z,0
2018-09-19T01:12:13.522Z,0
2018-09-19T01:13:14.244Z,0
2018-09-19T01:14:14.919Z,0
2018-09-19T01:15:15.595Z,0
2018-09-19T01:16:16.272Z,0
2018-09-19T01:17:16.949Z,0
2018-09-19T01:18:17.622Z,0
2018-09-19T01:19:18.296Z,0
2018-09-19T01:20:18.978Z,0
2018-09-19T01:21:19.648Z,0
2018-09-19T01:22:20.327Z,0
2018-09-19T01:23:20.999Z,0
2018-09-19T01:24:21.678Z,0
2018-09-19T01:25:22.397Z,0
2018-09-19T01:26:23.071Z,0
2018-09-19T01:27:23.747Z,0
2018-09-19T01:28:24.422Z,0
2018-09-19T01:29:25.102Z,0
2018-09-19T01:30:25.775Z,0
2018-09-19T01:31:26.456Z,0
2018-09-19T01:32:27.170Z,0
2018-09-19T01:33:27.851Z,0
2018-09-19T01:34:28.523Z,0
2018-09-19T01:35:29.202Z,0
2018-09-19T01:36:29.920Z,0
2018-09-19T01:37:30.601Z,0
2018-09-19T01:38:31.272Z,0
2018-09-19T01:39:31.948Z,0
2018-09-19T01:40:32.621Z,0
2018-09-19T01:41:33.358Z,0
2018-09-19T01:42:34.023Z,0
2018-09-19T01:43:34.699Z,0
2018-09-19T01:44:35.373Z,0
2018-09-19T01:45:36.054Z,0
2018-09-19T01:46:36.726Z,0
2018-09-19T01:47:37.401Z,0
2018-09-19T01:48:38.122Z,0
2018-09-19T01:49:38.799Z,0
2018-09-19T01:50:39.476Z,0
2018-09-19T01:51:40.241Z,0
2018-09-19T01:52:40.871Z,0
2018-09-19T01:53:41.551Z,0
2018-09-19T01:54:42.222Z,0
2018-09-19T01:55:42.900Z,0
2018-09-19T01:56:43.577Z,0
2018-09-19T01:57:44.250Z,0
2018-09-19T01:58:44.926Z,0
2018-09-19T01:59:45.603Z,0
2018-09-19T02:00:46.277Z,0
2018-09-19T02:01:46.952Z,0
2018-09-19T02:02:47.629Z,0
2018-09-19T02:03:48.305Z,0
2018-09-19T02:04:48.980Z,0
2018-09-19T02:05:49.700Z,0
2018-09-19T02:06:50.378Z,0
2018-09-19T02:07:51.051Z,0
2018-09-19T02:08:51.726Z,0
2018-09-19T02:09:52.401Z,0
2018-09-19T02:10:53.077Z,0
2018-09-19T02:11:53.760Z,0
2018-09-19T02:12:54.432Z,0
2018-09-19T02:13:55.105Z,0
2018-09-19T02:14:55.779Z,0
2018-09-19T02:15:56.456Z,0
2018-09-19T02:16:57.132Z,0
2018-09-19T02:17:57.865Z,0
2018-09-19T02:18:58.508Z,0
2018-09-19T02:19:59.209Z,0
2018-09-19T02:20:59.932Z,0
2018-09-19T02:22:00.649Z,0
2018-09-19T02:23:01.323Z,0
2018-09-19T02:24:02.003Z,0
2018-09-19T02:25:02.678Z,0
2018-09-19T02:26:03.350Z,0
2018-09-19T02:27:04.025Z,0
2018-09-19T02:28:04.702Z,0
2018-09-19T02:29:05.399Z,0
2018-09-19T02:30:06.098Z,0
2018-09-19T02:31:06.775Z,0
2018-09-19T02:32:07.545Z,0
2018-09-19T02:33:08.220Z,0
2018-09-19T02:34:08.939Z,0
2018-09-19T02:35:09.616Z,0
2018-09-19T02:36:10.295Z,0
2018-09-19T02:37:10.967Z,0
2018-09-19T02:38:11.642Z,0
2018-09-19T02:39:12.316Z,0
2018-09-19T02:40:12.993Z,0
2018-09-19T02:41:13.669Z,0
2018-09-19T02:42:14.345Z,0
2018-09-19T02:43:15.021Z,0
2018-09-19T02:44:15.705Z,0
2018-09-19T02:45:16.371Z,0
2018-09-19T02:46:17.051Z,0
2018-09-19T02:47:17.722Z,0
2018-09-19T02:48:18.397Z,0
2018-09-19T02:49:19.138Z,0
2018-09-19T02:50:19.787Z,0
2018-09-19T02:51:20.511Z,0
2018-09-19T02:52:21.179Z,0
2018-09-19T02:53:21.853Z,0
2018-09-19T02:54:22.546Z,0
2018-09-19T02:55:23.253Z,0
2018-09-19T02:56:23.927Z,0
2018-09-19T02:57:24.603Z,0
2018-09-19T02:58:25.324Z,0
2018-09-19T02:59:25.999Z,0
2018-09-19T03:00:26.676Z,0
2018-09-19T03:01:27.395Z,0
2018-09-19T03:02:28.073Z,0
2018-09-19T03:03:28.746Z,0
2018-09-19T03:04:29.422Z,0
2018-09-19T03:05:30.096Z,0
2018-09-19T03:06:30.773Z,0
2018-09-19T03:07:31.449Z,0
2018-09-19T03:08:32.124Z,0
2018-09-19T03:09:32.804Z,0
2018-09-19T03:10:33.478Z,0
2018-09-19T03:11:34.153Z,0
2018-09-19T03:12:34.831Z,0
2018-09-19T03:13:35.509Z,0
2018-09-19T03:14:36.184Z,0
2018-09-19T03:15:36.862Z,0
2018-09-19T03:16:37.579Z,0
2018-09-19T03:17:38.386Z,0
2018-09-19T03:18:38.969Z,0
2018-09-19T03:19:39.642Z,0
2018-09-19T03:20:40.319Z,0
2018-09-19T03:21:41.036Z,0
2018-09-19T03:22:41.719Z,0
2018-09-19T03:23:42.432Z,0
2018-09-19T03:24:43.108Z,0
2018-09-19T03:25:43.787Z,0
2018-09-19T03:26:44.504Z,0
2018-09-19T03:27:45.181Z,0
2018-09-19T03:28:45.856Z,0
2018-09-19T03:29:46.555Z,0
2018-09-19T03:30:47.247Z,0
2018-09-19T03:31:47.963Z,0
2018-09-19T03:32:48.640Z,0
2018-09-19T03:33:49.315Z,0
2018-09-19T03:34:49.991Z,0
2018-09-19T03:35:50.667Z,0
2018-09-19T03:36:51.341Z,0
2018-09-19T03:37:52.018Z,0
2018-09-19T03:38:52.694Z,0
2018-09-19T03:39:53.417Z,0
2018-09-19T03:40:54.095Z,0
2018-09-19T03:41:54.770Z,0
2018-09-19T03:42:55.446Z,0
2018-09-19T03:43:56.164Z,0
2018-09-19T03:44:56.841Z,0
2018-09-19T03:45:57.515Z,0
2018-09-19T03:46:58.189Z,0
2018-09-19T03:47:58.868Z,0
2018-09-19T03:48:59.543Z,0
2018-09-19T03:50:00.216Z,0
2018-09-19T03:51:00.890Z,0
2018-09-19T03:52:01.567Z,0
2018-09-19T03:53:02.243Z,0
2018-09-19T03:54:02.917Z,0
2018-09-19T03:55:03.638Z,0
2018-09-19T03:56:04.311Z,0
2018-09-19T03:57:04.987Z,0
2018-09-19T03:58:05.709Z,0
2018-09-19T03:59:06.344Z,0
2018-09-19T04:00:07.059Z,0
2018-09-19T04:01:07.734Z,0
2018-09-19T04:02:08.409Z,0
2018-09-19T04:03:09.085Z,0
2018-09-19T04:04:09.761Z,0
2018-09-19T04:05:10.436Z,0
2018-09-19T04:06:11.115Z,0
2018-09-19T04:07:11.786Z,0
2018-09-19T04:08:12.463Z,0
2018-09-19T04:09:13.138Z,0
2018-09-19T04:10:13.862Z,0
2018-09-19T04:11:14.533Z,0
2018-09-19T04:12:15.211Z,0
2018-09-19T04:13:15.883Z,0
2018-09-19T04:14:16.558Z,0
2018-09-19T04:15:17.237Z,0
2018-09-19T04:16:17.911Z,0
2018-09-19T04:17:18.588Z,0
2018-09-19T04:18:19.261Z,0
2018-09-19T04:19:19.936Z,0
2018-09-19T04:20:20.611Z,0
2018-09-19T04:21:21.288Z,0
2018-09-19T04:22:22.022Z,0
2018-09-19T04:23:22.730Z,0
2018-09-19T04:24:23.401Z,0
2018-09-19T04:25:24.080Z,0
2018-09-19T04:26:24.752Z,0
2018-09-19T04:27:25.472Z,0
2018-09-19T04:28:26.148Z,0
2018-09-19T04:29:26.824Z,4
2018-09-19T04:30:27.506Z,4
2018-09-19T04:31:28.178Z,0
2018-09-19T04:32:28.979Z,0
2018-09-19T04:33:29.572Z,4
2018-09-19T04:34:30.249Z,4
2018-09-19T04:35:30.974Z,4
2018-09-19T04:36:31.645Z,4
2018-09-19T04:37:32.373Z,4
2018-09-19T04:38:33.042Z,8
2018-09-19T04:39:33.726Z,8
2018-09-19T04:40:34.481Z,12
2018-09-19T04:41:35.161Z,12
2018-09-19T04:42:35.874Z,12
2018-09-19T04:43:36.551Z,16
2018-09-19T04:44:37.227Z,16
2018-09-19T04:45:37.915Z,20
2018-09-19T04:46:38.626Z,20
2018-09-19T04:47:39.305Z,28
2018-09-19T04:48:39.976Z,28
2018-09-19T04:49:40.656Z,36
2018-09-19T04:50:41.377Z,36
2018-09-19T04:51:42.092Z,40
2018-09-19T04:52:42.728Z,48
2018-09-19T04:53:43.410Z,52
2018-09-19T04:54:44.085Z,60
2018-09-19T04:55:44.762Z,64
2018-09-19T04:56:45.439Z,76
2018-09-19T04:57:46.116Z,76
2018-09-19T04:58:46.795Z,84
2018-09-19T04:59:47.513Z,96
2018-09-19T05:00:48.191Z,104
2018-09-19T05:01:48.868Z,112
2018-09-19T05:02:49.593Z,120
2018-09-19T05:03:50.317Z,136
2018-09-19T05:04:51.038Z,144
2018-09-19T05:05:51.820Z,156
2018-09-19T05:06:52.398Z,168
2018-09-19T05:07:53.074Z,180
2018-09-19T05:08:53.752Z,196
2018-09-19T05:09:54.433Z,208
2018-09-19T05:10:55.108Z,220
2018-09-19T05:11:55.785Z,240
2018-09-19T05:12:56.462Z,252
2018-09-19T05:13:57.144Z,272
2018-09-19T05:14:57.823Z,288
2018-09-19T05:15:58.543Z,304
2018-09-19T05:16:59.224Z,316
2018-09-19T05:17:59.903Z,332
2018-09-19T05:19:00.626Z,344
2018-09-19T05:20:01.352Z,356
2018-09-19T05:21:02.044Z,368
2018-09-19T05:22:02.803Z,380
2018-09-19T05:23:03.481Z,392
2018-09-19T05:24:04.160Z,408
2018-09-19T05:25:04.836Z,420
2018-09-19T05:26:05.522Z,432
2018-09-19T05:27:06.239Z,444
2018-09-19T05:28:06.923Z,460
2018-09-19T05:29:07.643Z,476
2018-09-19T05:30:08.321Z,492
2018-09-19T05:31:08.998Z,504
2018-09-19T05:32:09.679Z,520
2018-09-19T05:33:10.358Z,536
2018-09-19T05:34:11.038Z,556
2018-09-19T05:35:11.716Z,568
2018-09-19T05:36:12.393Z,584
2018-09-19T05:37:13.072Z,592
2018-09-19T05:38:13.752Z,604
2018-09-19T05:39:14.475Z,612
2018-09-19T05:40:15.196Z,620
2018-09-19T05:41:15.891Z,632
2018-09-19T05:42:16.554Z,648
2018-09-19T05:43:17.276Z,664
2018-09-19T05:44:18.003Z,680
2018-09-19T05:45:18.685Z,704
2018-09-19T05:46:19.475Z,724
2018-09-19T05:47:20.085Z,752
2018-09-19T05:48:20.763Z,788
2018-09-19T05:49:21.440Z,824
2018-09-19T05:50:22.126Z,872
2018-09-19T05:51:22.844Z,920
2018-09-19T05:52:23.532Z,984
2018-09-19T05:53:24.248Z,1060
2018-09-19T05:54:24.953Z,1160
2018-09-19T05:55:25.609Z,1284
2018-09-19T05:56:26.287Z,1412
2018-09-19T05:57:26.967Z,1528
2018-09-19T05:58:27.649Z,1596
2018-09-19T05:59:28.328Z,1624
2018-09-19T06:00:29.005Z,1644
2018-09-19T06:01:29.684Z,1672
2018-09-19T06:02:30.377Z,1708
2018-09-19T06:03:31.044Z,1756
2018-09-19T06:04:31.768Z,1800
2018-09-19T06:05:32.492Z,1852
2018-09-19T06:06:33.171Z,1900
2018-09-19T06:07:33.895Z,1964
2018-09-19T06:08:34.579Z,2060
2018-09-19T06:09:35.252Z,2168
2018-09-19T06:10:35.959Z,2252
2018-09-19T06:11:36.659Z,2332
2018-09-19T06:12:37.383Z,2392
2018-09-19T06:13:38.018Z,2444
2018-09-19T06:14:38.698Z,2496
2018-09-19T06:15:39.380Z,2536
2018-09-19T06:16:40.059Z,2584
2018-09-19T06:17:40.737Z,2632
2018-09-19T06:18:41.418Z,2676
2018-09-19T06:19:42.142Z,2716
2018-09-19T06:20:42.822Z,2760
2018-09-19T06:21:43.500Z,2788
2018-09-19T06:22:44.227Z,2812
2018-09-19T06:23:44.898Z,2840
2018-09-19T06:24:45.578Z,2864
2018-09-19T06:25:46.259Z,2884
2018-09-19T06:26:46.940Z,2900
2018-09-19T06:27:47.665Z,2920
2018-09-19T06:28:48.342Z,2936
2018-09-19T06:29:49.024Z,2964
2018-09-19T06:30:49.701Z,2992
2018-09-19T06:31:50.382Z,3024
2018-09-19T06:32:51.129Z,3060
2018-09-19T06:33:51.741Z,3088
2018-09-19T06:34:52.422Z,3136
2018-09-19T06:35:53.124Z,3180
2018-09-19T06:36:53.856Z,3216
2018-09-19T06:37:54.507Z,3240
2018-09-19T06:38:55.230Z,3264
2018-09-19T06:39:55.925Z,3292
2018-09-19T06:40:56.750Z,3316
2018-09-19T06:41:57.335Z,3344
2018-09-19T06:42:58.032Z,3372
2018-09-19T06:43:58.756Z,3400
2018-09-19T06:44:59.440Z,3428
2018-09-19T06:46:00.120Z,3460
2018-09-19T06:47:00.833Z,3496
2018-09-19T06:48:01.478Z,3544
2018-09-19T06:49:02.169Z,3592
2018-09-19T06:50:02.881Z,3632
2018-09-19T06:51:03.577Z,3656
2018-09-19T06:52:04.297Z,3672
2018-09-19T06:53:04.960Z,3688
2018-09-19T06:54:05.640Z,3708
2018-09-19T06:55:06.323Z,3740
2018-09-19T06:56:06.997Z,3776
2018-09-19T06:57:07.684Z,3816
2018-09-19T06:58:08.402Z,3840
2018-09-19T06:59:09.081Z,3860
2018-09-19T07:00:09.762Z,3872
2018-09-19T07:01:10.442Z,3884
2018-09-19T07:02:11.125Z,3900
2018-09-19T07:03:11.846Z,3920
2018-09-19T07:04:12.530Z,3948
2018-09-19T07:05:13.207Z,3980
2018-09-19T07:06:13.886Z,4000
2018-09-19T07:07:14.568Z,3996
2018-09-19T07:08:15.248Z,3964
2018-09-19T07:09:15.972Z,3920
2018-09-19T07:10:16.654Z,3876
2018-09-19T07:11:17.365Z,3908
2018-09-19T07:12:18.059Z,3992
2018-09-19T07:13:18.742Z,4060
2018-09-19T07:14:19.462Z,4116
2018-09-19T07:15:20.150Z,4144
2018-09-19T07:16:20.875Z,4160
2018-09-19T07:17:21.557Z,4164
2018-09-19T07:18:22.238Z,4152
2018-09-19T07:19:22.919Z,4148
2018-09-19T07:20:23.639Z,4180
2018-09-19T07:21:24.329Z,4212
2018-09-19T07:22:25.011Z,4244
2018-09-19T07:23:25.691Z,4256
2018-09-19T07:24:26.374Z,4220
2018-09-19T07:25:27.063Z,4188
2018-09-19T07:26:27.814Z,4364
2018-09-19T07:27:28.511Z,4356
2018-09-19T07:28:29.199Z,4380
2018-09-19T07:29:29.920Z,4444
2018-09-19T07:30:30.666Z,4540
2018-09-19T07:31:31.329Z,4716
2018-09-19T07:32:32.011Z,5024
2018-09-19T07:33:32.705Z,5300
2018-09-19T07:34:33.422Z,5424
2018-09-19T07:35:34.123Z,5400
2018-09-19T07:36:34.787Z,5396
2018-09-19T07:37:35.513Z,5420
2018-09-19T07:38:36.197Z,5428
2018-09-19T07:39:36.880Z,5444
2018-09-19T07:40:37.564Z,5452
2018-09-19T07:41:38.245Z,5476
2018-09-19T07:42:38.928Z,5504
2018-09-19T07:43:39.610Z,5528
2018-09-19T07:44:40.336Z,5536
2018-09-19T07:45:40.978Z,5544
2018-09-19T07:46:41.723Z,5588
2018-09-19T07:47:42.346Z,5620
2018-09-19T07:48:43.030Z,5660
2018-09-19T07:49:43.715Z,5696
2018-09-19T07:50:44.398Z,5712
2018-09-19T07:51:45.083Z,5696
2018-09-19T07:52:45.812Z,5660
2018-09-19T07:53:46.498Z,5612
2018-09-19T07:54:47.345Z,5556
2018-09-19T07:55:47.913Z,5528
2018-09-19T07:56:48.620Z,5492
2018-09-19T07:57:49.286Z,5448
2018-09-19T07:58:49.971Z,5416
2018-09-19T07:59:50.703Z,5384
2018-09-19T08:00:51.475Z,5360
2018-09-19T08:01:52.034Z,5332
2018-09-19T08:02:52.763Z,5288
2018-09-19T08:03:53.452Z,5264
2018-09-19T08:04:54.138Z,5240
2018-09-19T08:05:54.832Z,5228
2018-09-19T08:06:55.559Z,5228
2018-09-19T08:07:56.308Z,5204
2018-09-19T08:08:57.053Z,5176
2018-09-19T08:09:57.684Z,5140
2018-09-19T08:10:58.383Z,5124
2018-09-19T08:11:59.108Z,5096
2018-09-19T08:12:59.839Z,5084
2018-09-19T08:14:00.524Z,5056
2018-09-19T08:15:01.213Z,5036
2018-09-19T08:16:01.900Z,5040
2018-09-19T08:17:02.674Z,5020
2018-09-19T08:18:03.276Z,5008
2018-09-19T08:19:03.965Z,5000
2018-09-19T08:20:04.700Z,5000
2018-09-19T08:21:05.385Z,5000
2018-09-19T08:22:06.076Z,5004
2018-09-19T08:23:06.767Z,5008
2018-09-19T08:24:07.452Z,5016
2018-09-19T08:25:08.143Z,5004
2018-09-19T08:26:08.830Z,4980
2018-09-19T08:27:09.561Z,4956
2018-09-19T08:28:10.246Z,4952
2018-09-19T08:29:10.935Z,4948
2018-09-19T08:30:11.622Z,4948
2018-09-19T08:31:12.356Z,4964
2018-09-19T08:32:13.048Z,4980
2018-09-19T08:33:13.781Z,5004
2018-09-19T08:34:14.540Z,5012
2018-09-19T08:35:15.251Z,5008
2018-09-19T08:36:15.982Z,5012
2018-09-19T08:37:16.678Z,5008
2018-09-19T08:38:17.361Z,5016
2018-09-19T08:39:18.054Z,5024
2018-09-19T08:40:18.737Z,5028
2018-09-19T08:41:19.428Z,5040
2018-09-19T08:42:20.116Z,5052
2018-09-19T08:43:20.806Z,5064
2018-09-19T08:44:21.496Z,5076
2018-09-19T08:45:22.185Z,5052
2018-09-19T08:46:22.873Z,5004
2018-09-19T08:47:23.564Z,4984
2018-09-19T08:48:24.251Z,4964
2018-09-19T08:49:24.940Z,4940
2018-09-19T08:50:25.644Z,4888
2018-09-19T08:51:26.366Z,4824
2018-09-19T08:52:27.057Z,4820
2018-09-19T08:53:27.789Z,4796
2018-09-19T08:54:28.483Z,4780
2018-09-19T08:55:29.169Z,4776
2018-09-19T08:56:29.903Z,4776
2018-09-19T08:57:30.594Z,4768
2018-09-19T08:58:31.284Z,4764
2018-09-19T08:59:31.972Z,4744
2018-09-19T09:00:32.663Z,4744
2018-09-19T09:01:33.397Z,4788
2018-09-19T09:02:34.086Z,4788
2018-09-19T09:03:34.821Z,4776
2018-09-19T09:04:35.555Z,4756
2018-09-19T09:05:36.245Z,4760
2018-09-19T09:06:36.944Z,4748
2018-09-19T09:07:37.684Z,4728
2018-09-19T09:08:38.358Z,4720
2018-09-19T09:09:39.051Z,4708
2018-09-19T09:10:39.740Z,4700
2018-09-19T09:11:40.475Z,4692
2018-09-19T09:12:41.226Z,4692
2018-09-19T09:13:41.854Z,4700
2018-09-19T09:14:42.543Z,4704
2018-09-19T09:15:43.231Z,4696
2018-09-19T09:16:43.922Z,4704
2018-09-19T09:17:44.610Z,4712
2018-09-19T09:18:45.300Z,4704
2018-09-19T09:19:46.003Z,4704
2018-09-19T09:20:46.717Z,4712
2018-09-19T09:21:47.408Z,4712
2018-09-19T09:22:48.127Z,4700
2018-09-19T09:23:48.831Z,4704
2018-09-19T09:24:49.521Z,4704
2018-09-19T09:25:50.209Z,4696
2018-09-19T09:26:50.995Z,4680
2018-09-19T09:27:51.589Z,4672
2018-09-19T09:28:52.281Z,4652
2018-09-19T09:29:53.011Z,4652
2018-09-19T09:30:53.699Z,4640
2018-09-19T09:31:54.389Z,4660
2018-09-19T09:32:55.124Z,4648
2018-09-19T09:33:55.811Z,4644
2018-09-19T09:34:56.502Z,4664
2018-09-19T09:35:57.194Z,4628
2018-09-19T09:36:58.011Z,4628
2018-09-19T09:37:58.619Z,4624
2018-09-19T09:38:59.350Z,4648
2018-09-19T09:40:00.039Z,4632
2018-09-19T09:41:00.728Z,4612
2018-09-19T09:42:01.416Z,4600
2018-09-19T09:43:02.109Z,4608
2018-09-19T09:44:02.843Z,4600
2018-09-19T09:45:03.577Z,4452
2018-09-19T09:46:04.329Z,4544
2018-09-19T09:47:05.000Z,4468
2018-09-19T09:48:05.692Z,4552
2018-09-19T09:49:06.380Z,4580
2018-09-19T09:50:07.105Z,4560
2018-09-19T09:51:07.803Z,4552
2018-09-19T09:52:08.499Z,4552
2018-09-19T09:53:09.272Z,4532
2018-09-19T09:54:09.956Z,4508
2018-09-19T09:55:10.662Z,4496
2018-09-19T09:56:11.367Z,4516
2018-09-19T09:57:12.072Z,4516
2018-09-19T09:58:12.808Z,4508
2018-09-19T09:59:13.546Z,4492
2018-09-19T10:00:14.237Z,4456
2018-09-19T10:01:14.924Z,4476
2018-09-19T10:02:15.616Z,4420
2018-09-19T10:03:16.344Z,4148
2018-09-19T10:04:17.041Z,4500
2018-09-19T10:05:17.755Z,4552
2018-09-19T10:06:18.465Z,4560
2018-09-19T10:07:19.106Z,4580
2018-09-19T10:08:19.795Z,4584
2018-09-19T10:09:20.484Z,4612
2018-09-19T10:10:21.175Z,4628
2018-09-19T10:11:21.946Z,4616
2018-09-19T10:12:22.643Z,4596
2018-09-19T10:13:23.349Z,4592
2018-09-19T10:14:24.067Z,4588
2018-09-19T10:15:24.757Z,4604
2018-09-19T10:16:25.444Z,4648
2018-09-19T10:17:26.133Z,4644
2018-09-19T10:18:26.825Z,4624
2018-09-19T10:19:27.510Z,4604
2018-09-19T10:20:28.248Z,4572
2018-09-19T10:21:28.934Z,4536
2018-09-19T10:22:29.622Z,4580
2018-09-19T10:23:30.313Z,4572
2018-09-19T10:24:30.998Z,4564
2018-09-19T10:25:31.686Z,4568
2018-09-19T10:26:32.375Z,4596
2018-09-19T10:27:33.063Z,4540
2018-09-19T10:28:33.753Z,4492
2018-09-19T10:29:34.536Z,4464
2018-09-19T10:30:35.173Z,4444
2018-09-19T10:31:35.860Z,4412
2018-09-19T10:32:36.595Z,4468
2018-09-19T10:33:37.285Z,4376
2018-09-19T10:34:37.969Z,4356
2018-09-19T10:35:38.659Z,4388
2018-09-19T10:36:39.345Z,4372
2018-09-19T10:37:40.034Z,4344
2018-09-19T10:38:40.721Z,4344
2018-09-19T10:39:41.407Z,4384
2018-09-19T10:40:42.096Z,4396
2018-09-19T10:41:42.784Z,4344
2018-09-19T10:42:43.470Z,4312
2018-09-19T10:43:44.189Z,4260
2018-09-19T10:44:44.854Z,4228
2018-09-19T10:45:45.583Z,4220
2018-09-19T10:46:46.265Z,4204
2018-09-19T10:47:46.952Z,4304
2018-09-19T10:48:47.640Z,4284
2018-09-19T10:49:48.333Z,4312
2018-09-19T10:50:49.015Z,4340
2018-09-19T10:51:49.703Z,4360
2018-09-19T10:52:50.392Z,4328
2018-09-19T10:53:51.080Z,4304
2018-09-19T10:54:51.765Z,4328
2018-09-19T10:55:52.453Z,4340
2018-09-19T10:56:53.145Z,4328
2018-09-19T10:57:53.829Z,4300
2018-09-19T10:58:54.515Z,4308
2018-09-19T10:59:55.205Z,4344
2018-09-19T11:00:55.891Z,4336
2018-09-19T11:01:56.576Z,4352
2018-09-19T11:02:57.265Z,4328
2018-09-19T11:03:57.997Z,4328
2018-09-19T11:04:58.676Z,4336
2018-09-19T11:05:59.420Z,4264
2018-09-19T11:07:00.102Z,4232
2018-09-19T11:08:00.793Z,4232
2018-09-19T11:09:01.477Z,4200
2018-09-19T11:10:02.163Z,4204
2018-09-19T11:11:02.852Z,4224
2018-09-19T11:12:03.541Z,4244
2018-09-19T11:13:04.225Z,4256
2018-09-19T11:14:04.913Z,4296
2018-09-19T11:15:05.599Z,4332
2018-09-19T11:16:06.287Z,4352
2018-09-19T11:17:07.036Z,4432
2018-09-19T11:18:07.708Z,4440
2018-09-19T11:19:08.441Z,4360
2018-09-19T11:20:09.128Z,4416
2018-09-19T11:21:09.814Z,4360
2018-09-19T11:22:10.502Z,4360
2018-09-19T11:23:11.188Z,4368
2018-09-19T11:24:11.875Z,4384
2018-09-19T11:25:12.605Z,4380
2018-09-19T11:26:13.252Z,4416
2018-09-19T11:27:13.942Z,4412
2018-09-19T11:28:14.628Z,4376
2018-09-19T11:29:15.355Z,4356
2018-09-19T11:30:16.072Z,4432
2018-09-19T11:31:16.778Z,4472
2018-09-19T11:32:17.465Z,4504
2018-09-19T11:33:18.153Z,4488
2018-09-19T11:34:18.837Z,4448
2018-09-19T11:35:19.527Z,4400
2018-09-19T11:36:20.212Z,4412
2018-09-19T11:37:20.898Z,4412
2018-09-19T11:38:21.589Z,4436
2018-09-19T11:39:22.319Z,4460
2018-09-19T11:40:23.006Z,4512
2018-09-19T11:41:23.740Z,4528
2018-09-19T11:42:24.475Z,4560
2018-09-19T11:43:25.212Z,4548
2018-09-19T11:44:25.897Z,4556
2018-09-19T11:45:26.586Z,4584
2018-09-19T11:46:27.271Z,4608
2018-09-19T11:47:28.012Z,4596
2018-09-19T11:48:28.742Z,4576
2018-09-19T11:49:29.474Z,4536
2018-09-19T11:50:30.162Z,4560
2018-09-19T11:51:30.873Z,4568
2018-09-19T11:52:31.580Z,4600
2018-09-19T11:53:32.276Z,4584
2018-09-19T11:54:33.000Z,4552
2018-09-19T11:55:33.736Z,4624
2018-09-19T11:56:34.423Z,4576
2018-09-19T11:57:35.109Z,4584
2018-09-19T11:58:35.795Z,4664
2018-09-19T11:59:36.482Z,4696
2018-09-19T12:00:37.174Z,4680
2018-09-19T12:01:37.900Z,4696
2018-09-19T12:02:38.586Z,4708
2018-09-19T12:03:39.274Z,4684
2018-09-19T12:04:39.959Z,4680
2018-09-19T12:05:40.646Z,4660
2018-09-19T12:06:41.336Z,4644
2018-09-19T12:07:42.024Z,4680
2018-09-19T12:08:42.710Z,4656
2018-09-19T12:09:43.397Z,4640
2018-09-19T12:10:44.084Z,4496
2018-09-19T12:11:44.770Z,4680
2018-09-19T12:12:45.457Z,4716
2018-09-19T12:13:46.234Z,4724
2018-09-19T12:14:46.926Z,4696
2018-09-19T12:15:47.614Z,4660
2018-09-19T12:16:48.330Z,4676
2018-09-19T12:17:49.031Z,4680
2018-09-19T12:18:49.718Z,4716
2018-09-19T12:19:50.407Z,4748
2018-09-19T12:20:51.092Z,4736
2018-09-19T12:21:51.777Z,4708
2018-09-19T12:22:52.464Z,4696
2018-09-19T12:23:53.154Z,4720
2018-09-19T12:24:53.888Z,4684
2018-09-19T12:25:54.615Z,4704
2018-09-19T12:26:55.303Z,4752
2018-09-19T12:27:55.989Z,4772
2018-09-19T12:28:56.675Z,4772
2018-09-19T12:29:57.362Z,4792
2018-09-19T12:30:58.051Z,4776
2018-09-19T12:31:58.780Z,4824
2018-09-19T12:32:59.465Z,4840
2018-09-19T12:34:00.193Z,4880
2018-09-19T12:35:00.879Z,4896
2018-09-19T12:36:01.565Z,4848
2018-09-19T12:37:02.253Z,4868
2018-09-19T12:38:02.941Z,4892
2018-09-19T12:39:03.631Z,4876
2018-09-19T12:40:04.315Z,4864
2018-09-19T12:41:05.002Z,4912
2018-09-19T12:42:05.688Z,4876
2018-09-19T12:43:06.378Z,4896
2018-09-19T12:44:07.068Z,4912
2018-09-19T12:45:07.796Z,4920
2018-09-19T12:46:08.483Z,4952
2018-09-19T12:47:09.167Z,4972
2018-09-19T12:48:09.855Z,4952
2018-09-19T12:49:10.585Z,4908
2018-09-19T12:50:11.230Z,4924
2018-09-19T12:51:11.933Z,4928
2018-09-19T12:52:12.651Z,4888
2018-09-19T12:53:13.375Z,4936
2018-09-19T12:54:14.023Z,4924
2018-09-19T12:55:14.712Z,4872
2018-09-19T12:56:15.400Z,4896
2018-09-19T12:57:16.086Z,4900
2018-09-19T12:58:16.791Z,4884
2018-09-19T12:59:17.506Z,4824
2018-09-19T13:00:18.193Z,4840
2018-09-19T13:01:18.914Z,4800
2018-09-19T13:02:19.611Z,4808
2018-09-19T13:03:20.341Z,4860
2018-09-19T13:04:21.033Z,4864
2018-09-19T13:05:21.767Z,4864
2018-09-19T13:06:22.458Z,4888
2018-09-19T13:07:23.186Z,4856
2018-09-19T13:08:23.871Z,4836
2018-09-19T13:09:24.560Z,4828
2018-09-19T13:10:25.245Z,4800
2018-09-19T13:11:25.932Z,4804
2018-09-19T13:12:26.618Z,4880
2018-09-19T13:13:27.305Z,4856
2018-09-19T13:14:27.991Z,4872
2018-09-19T13:15:28.679Z,4860
2018-09-19T13:16:29.367Z,4872
2018-09-19T13:17:30.054Z,4928
2018-09-19T13:18:30.741Z,4940
2018-09-19T13:19:31.430Z,4984
2018-09-19T13:20:32.118Z,4972
2018-09-19T13:21:32.802Z,4952
2018-09-19T13:22:33.489Z,4964
2018-09-19T13:23:34.177Z,4924
2018-09-19T13:24:34.867Z,4912
2018-09-19T13:25:35.595Z,4880
2018-09-19T13:26:36.335Z,4900
2018-09-19T13:27:37.021Z,4808
2018-09-19T13:28:37.709Z,4772
2018-09-19T13:29:38.398Z,4788
2018-09-19T13:30:39.131Z,4736
2018-09-19T13:31:39.818Z,4712
2018-09-19T13:32:40.531Z,4692
2018-09-19T13:33:41.240Z,4576
2018-09-19T13:34:41.927Z,4568
2018-09-19T13:35:42.614Z,4564
2018-09-19T13:36:43.308Z,4552
2018-09-19T13:37:43.989Z,4548
2018-09-19T13:38:44.675Z,4540
2018-09-19T13:39:45.407Z,4520
2018-09-19T13:40:46.095Z,4604
2018-09-19T13:41:46.781Z,4568
2018-09-19T13:42:47.500Z,4532
2018-09-19T13:43:48.201Z,4532
2018-09-19T13:44:48.900Z,4492
2018-09-19T13:45:49.622Z,4496
2018-09-19T13:46:50.309Z,4488
2018-09-19T13:47:50.996Z,2972
2018-09-19T13:48:51.682Z,4444
2018-09-19T13:49:52.369Z,4500
2018-09-19T13:50:53.076Z,4372
2018-09-19T13:51:53.787Z,4452
2018-09-19T13:52:54.474Z,4496
2018-09-19T13:53:55.207Z,4520
2018-09-19T13:54:55.909Z,4644
2018-09-19T13:55:56.628Z,4724
2018-09-19T13:56:57.313Z,4696
2018-09-19T13:57:58.001Z,4720
2018-09-19T13:58:58.748Z,4656